createdAt,value
2022-11-09T00:01:38.311Z,6.60
2022-11-09T00:06:47.417Z,6.80
2022-11-09T00:11:57.011Z,6.70
2022-11-09T00:17:04.215Z,6.80
2022-11-09T00:22:12.554Z,6.70
2022-11-09T00:27:20.916Z,6.70
2022-11-09T00:32:28.112Z,6.70
2022-11-09T00:37:35.294Z,6.70
2022-11-09T00:42:42.193Z,6.70
2022-11-09T00:47:48.861Z,6.80
2022-11-09T00:52:55.755Z,6.80
2022-11-09T00:58:02.581Z,6.70
2022-11-09T01:03:09.508Z,6.80
2022-11-09T01:08:16.586Z,6.60
2022-11-09T01:13:23.851Z,6.60
2022-11-09T01:18:30.732Z,6.60
2022-11-09T01:23:38.724Z,6.70
2022-11-09T01:28:46.130Z,6.40
2022-11-09T01:33:53.015Z,6.30
2022-11-09T01:39:00.020Z,6.40
2022-11-09T01:44:11.423Z,6.70
2022-11-09T01:49:41.475Z,6.70
2022-11-09T01:54:58.116Z,6.80
2022-11-09T02:00:11.627Z,6.60
2022-11-09T02:05:21.401Z,6.60
2022-11-09T02:10:35.061Z,6.60
2022-11-09T02:15:45.629Z,6.70
2022-11-09T02:20:54.253Z,6.80
2022-11-09T02:26:05.729Z,6.70
2022-11-09T02:31:16.025Z,6.80
2022-11-09T02:36:26.363Z,6.70
2022-11-09T02:41:35.076Z,6.70
2022-11-09T02:46:42.180Z,6.60
2022-11-09T02:51:49.484Z,6.60
2022-11-09T02:56:56.200Z,6.50
2022-11-09T03:02:03.215Z,6.40
2022-11-09T03:07:13.039Z,6.40
2022-11-09T03:12:21.453Z,6.30
2022-11-09T03:17:29.178Z,6.40
2022-11-09T03:22:37.728Z,6.40
2022-11-09T03:27:45.968Z,6.40
2022-11-09T03:32:52.934Z,6.40
2022-11-09T03:37:59.857Z,6.40
2022-11-09T03:43:07.097Z,6.40
2022-11-09T03:48:14.445Z,6.30
2022-11-09T03:53:23.556Z,6.30
2022-11-09T03:58:32.103Z,6.40
2022-11-09T04:03:39.214Z,6.30
2022-11-09T04:08:51.598Z,6.10
2022-11-09T04:13:57.704Z,6.10
2022-11-09T04:19:04.773Z,6.20
2022-11-09T04:24:13.139Z,6.20
2022-11-09T04:29:19.890Z,6.30
2022-11-09T04:34:26.963Z,6.30
2022-11-09T04:39:34.298Z,6.40
2022-11-09T04:44:42.524Z,6.30
2022-11-09T04:49:49.624Z,6.30
2022-11-09T04:54:56.266Z,6.30
2022-11-09T05:00:03.117Z,6.20
2022-11-09T05:05:10.367Z,6.00
2022-11-09T05:10:18.151Z,6.00
2022-11-09T05:15:27.592Z,5.90
2022-11-09T05:20:35.169Z,5.90
2022-11-09T05:25:44.826Z,5.80
2022-11-09T05:30:50.575Z,5.80
2022-11-09T05:35:58.262Z,5.70
2022-11-09T05:41:05.171Z,5.80
2022-11-09T05:46:12.066Z,5.70
2022-11-09T05:51:18.895Z,5.60
2022-11-09T05:56:25.601Z,5.60
2022-11-09T06:01:32.515Z,5.60
2022-11-09T06:06:39.227Z,5.60
2022-11-09T06:11:46.819Z,5.70
2022-11-09T06:16:53.613Z,5.70
2022-11-09T06:22:00.932Z,5.70
2022-11-09T06:27:08.110Z,5.80
2022-11-09T06:32:16.752Z,6.10
2022-11-09T06:37:23.386Z,6.00
2022-11-09T06:42:30.137Z,5.90
2022-11-09T06:47:36.830Z,5.90
2022-11-09T06:52:43.526Z,5.80
2022-11-09T06:57:50.195Z,5.90
2022-11-09T07:02:57.156Z,6.00
2022-11-09T07:08:03.873Z,6.20
2022-11-09T07:13:12.216Z,6.30
2022-11-09T07:18:18.900Z,6.30
2022-11-09T07:23:26.051Z,6.30
2022-11-09T07:28:33.496Z,6.30
2022-11-09T07:33:40.206Z,6.40
2022-11-09T07:38:48.600Z,6.40
2022-11-09T07:43:55.236Z,6.50
2022-11-09T07:49:01.879Z,6.60
2022-11-09T07:54:09.241Z,6.60
2022-11-09T07:59:17.539Z,6.60
2022-11-09T08:04:24.328Z,6.60
2022-11-09T08:09:31.199Z,6.60
2022-11-09T08:14:38.145Z,6.70
2022-11-09T08:19:45.159Z,6.70
2022-11-09T08:24:51.972Z,6.70
2022-11-09T08:30:02.319Z,6.90
2022-11-09T08:35:10.464Z,6.90
2022-11-09T08:40:20.979Z,6.90
2022-11-09T08:45:29.394Z,6.90
2022-11-09T08:50:40.150Z,7.00
2022-11-09T08:55:49.616Z,7.10
2022-11-09T09:00:56.053Z,7.20
2022-11-09T09:06:09.921Z,7.30
2022-11-09T09:11:17.167Z,7.20
2022-11-09T09:16:24.648Z,7.30
2022-11-09T09:21:31.559Z,7.30
2022-11-09T09:26:40.966Z,7.30
2022-11-09T09:31:47.745Z,7.50
2022-11-09T09:36:57.363Z,7.50
2022-11-09T09:42:08.342Z,7.60
2022-11-09T09:47:28.106Z,7.60
2022-11-09T09:53:10.572Z,7.70
2022-11-09T09:58:17.857Z,7.70
2022-11-09T10:03:25.467Z,7.90
2022-11-09T10:09:14.017Z,8.00
2022-11-09T10:14:50.417Z,8.00
2022-11-09T10:20:22.728Z,8.00
2022-11-09T10:26:02.415Z,8.20
2022-11-09T10:30:44.210Z,8.40
2022-11-09T10:36:13.334Z,8.50
2022-11-09T10:41:27.076Z,8.60
2022-11-09T10:46:38.489Z,8.80
2022-11-09T10:51:47.570Z,8.80
2022-11-09T10:57:08.168Z,9.00
2022-11-09T11:02:40.938Z,9.20
2022-11-09T11:07:50.443Z,9.20
2022-11-09T11:13:07.606Z,9.30
2022-11-09T11:18:22.977Z,9.20
2022-11-09T11:23:29.857Z,9.60
2022-11-09T11:29:02.077Z,9.60
2022-11-09T11:34:32.033Z,9.70
2022-11-09T11:39:44.698Z,9.80
2022-11-09T11:45:40.149Z,9.80
2022-11-09T11:50:55.492Z,9.90
2022-11-09T11:56:37.953Z,10.10
2022-11-09T12:01:51.047Z,10.10
2022-11-09T12:07:13.788Z,10.30
2022-11-09T12:12:45.883Z,10.30
2022-11-09T12:18:11.535Z,10.20
2022-11-09T12:23:34.824Z,10.30
2022-11-09T12:29:15.169Z,10.20
2022-11-09T12:34:34.989Z,10.30
2022-11-09T12:39:48.189Z,10.20
2022-11-09T12:45:16.817Z,10.20
2022-11-09T12:50:26.680Z,10.20
2022-11-09T12:55:52.975Z,10.20
2022-11-09T13:01:03.126Z,10.10
2022-11-09T13:06:28.752Z,10.20
2022-11-09T13:11:47.067Z,10.30
2022-11-09T13:16:57.835Z,10.30
2022-11-09T13:22:16.777Z,10.20
2022-11-09T13:27:45.876Z,10.20
2022-11-09T13:33:21.062Z,10.10
2022-11-09T13:38:31.680Z,10.10
2022-11-09T13:43:43.278Z,10.20
2022-11-09T13:48:58.292Z,10.20
2022-11-09T13:54:41.176Z,10.00
2022-11-09T13:59:53.006Z,10.00
2022-11-09T14:05:02.161Z,10.00
2022-11-09T14:10:19.558Z,9.90
2022-11-09T14:15:50.478Z,9.90
2022-11-09T14:21:28.436Z,9.90
2022-11-09T14:26:35.595Z,9.80
2022-11-09T14:31:46.041Z,9.80
2022-11-09T14:36:52.662Z,9.60
2022-11-09T14:42:00.403Z,9.50
2022-11-09T14:47:25.534Z,9.50
2022-11-09T14:52:36.220Z,9.50
2022-11-09T14:57:43.578Z,9.30
2022-11-09T15:02:53.453Z,9.30
2022-11-09T15:08:01.478Z,9.20
2022-11-09T15:13:08.446Z,9.10
2022-11-09T15:18:34.192Z,9.00
2022-11-09T15:23:47.099Z,8.90
2022-11-09T15:28:55.677Z,8.70
2022-11-09T15:34:02.985Z,8.60
2022-11-09T15:39:19.897Z,8.50
2022-11-09T15:44:26.644Z,8.40
2022-11-09T15:49:34.385Z,8.30
2022-11-09T15:54:46.421Z,8.30
2022-11-09T15:59:52.703Z,8.30
2022-11-09T16:05:00.817Z,8.20
2022-11-09T16:10:09.060Z,8.10
2022-11-09T16:15:16.118Z,8.10
2022-11-09T16:20:23.788Z,7.90
2022-11-09T16:25:30.606Z,7.90
2022-11-09T16:30:44.052Z,7.80
2022-11-09T16:35:48.990Z,7.80
2022-11-09T16:40:55.801Z,7.80
2022-11-09T16:46:02.660Z,7.60
2022-11-09T16:51:09.627Z,7.60
2022-11-09T16:56:17.612Z,7.60
2022-11-09T17:01:24.492Z,7.50
2022-11-09T17:06:33.290Z,7.50
2022-11-09T17:11:40.642Z,7.60
2022-11-09T17:16:49.381Z,7.50
2022-11-09T17:21:57.714Z,7.50
2022-11-09T17:27:04.400Z,7.50
2022-11-09T17:32:12.126Z,7.30
2022-11-09T17:37:19.227Z,7.40
2022-11-09T17:42:26.200Z,7.40
2022-11-09T17:47:34.901Z,7.30
2022-11-09T17:52:41.774Z,7.30
2022-11-09T17:57:49.151Z,7.30
2022-11-09T18:02:58.616Z,7.30
2022-11-09T18:08:05.819Z,7.30
2022-11-09T18:13:12.895Z,7.20
2022-11-09T18:18:23.300Z,7.10
2022-11-09T18:23:30.145Z,7.00
2022-11-09T18:28:38.135Z,7.10
2022-11-09T18:33:45.025Z,7.00
2022-11-09T18:38:55.419Z,7.00
2022-11-09T18:44:02.846Z,7.00
2022-11-09T18:49:14.226Z,6.90
2022-11-09T18:54:19.666Z,7.00
2022-11-09T18:59:26.586Z,6.90
2022-11-09T19:04:35.245Z,6.90
2022-11-09T19:09:42.627Z,6.80
2022-11-09T19:14:49.549Z,6.80
2022-11-09T19:19:58.075Z,6.70
2022-11-09T19:25:05.322Z,6.70
2022-11-09T19:30:12.729Z,6.70
2022-11-09T19:35:25.630Z,6.80
2022-11-09T19:40:29.835Z,6.70
2022-11-09T19:45:41.782Z,6.70
2022-11-09T19:50:53.102Z,6.80
2022-11-09T19:56:06.181Z,6.80
2022-11-09T20:01:14.130Z,6.80
2022-11-09T20:06:22.367Z,6.80
2022-11-09T20:11:48.209Z,6.70
2022-11-09T20:16:55.553Z,6.90
2022-11-09T20:22:02.700Z,6.80
2022-11-09T20:27:09.720Z,6.80
2022-11-09T20:32:21.372Z,6.90
2022-11-09T20:37:25.045Z,6.90
2022-11-09T20:42:31.831Z,7.00
2022-11-09T20:48:03.418Z,6.90
2022-11-09T20:52:47.081Z,6.90
2022-11-09T20:57:53.854Z,6.90
2022-11-09T21:03:01.587Z,6.90
2022-11-09T21:08:08.832Z,6.80
2022-11-09T21:13:15.626Z,6.80
2022-11-09T21:18:23.158Z,6.80
2022-11-09T21:23:48.189Z,6.80
2022-11-09T21:29:12.749Z,6.80
2022-11-09T21:34:19.672Z,6.90
2022-11-09T21:39:26.420Z,6.90
2022-11-09T21:44:35.273Z,6.90
2022-11-09T21:49:42.132Z,7.00
2022-11-09T21:54:48.713Z,7.00
2022-11-09T21:59:55.545Z,7.00
2022-11-09T22:05:02.579Z,7.00
2022-11-09T22:10:11.107Z,7.00
2022-11-09T22:15:35.782Z,6.90
2022-11-09T22:20:46.767Z,7.10
2022-11-09T22:25:53.540Z,7.10
2022-11-09T22:42:13.544Z,7.20
2022-11-09T22:47:19.907Z,7.30
2022-11-09T22:52:26.593Z,7.30
2022-11-09T22:57:33.378Z,7.30
2022-11-09T23:02:40.129Z,7.30
2022-11-09T23:07:46.828Z,7.30
2022-11-09T23:12:53.548Z,7.30
2022-11-09T23:18:18.890Z,7.30
2022-11-09T23:23:25.567Z,7.10
2022-11-09T23:28:33.540Z,7.30
2022-11-09T23:33:41.334Z,7.20
2022-11-09T23:38:48.444Z,7.30
2022-11-09T23:43:58.190Z,7.30
2022-11-09T23:49:06.256Z,7.30
2022-11-09T23:54:15.959Z,7.30
2022-11-09T23:59:23.478Z,7.50
